Time;durP1;ratioP1;P1;durP2;ratioP2;P2;SDS_P1;SDS_P2;PMS_P1;PMS_P2;Temp;Humidity;BMP_temperature;BMP_pressure;BME280_temperature;BME280_humidity;BME280_pressure;Samples;Min_cycle;Max_cycle;Signal;HPM_P1;HPM_P2
2021/10/11 00:00:30;;;;;;;20.45;8.80;;;;;;;;;;4915752;29;20036;-64
2021/10/11 00:02:56;;;;;;;21.98;9.50;;;;;;;;;;4915339;29;20389;-65
2021/10/11 00:05:22;;;;;;;24.67;8.77;;;;;;;;;;4915435;29;20040;-71
2021/10/11 00:07:49;;;;;;;18.55;8.43;;;;;;;;;;4898439;29;20032;-70
2021/10/11 00:10:23;;;;;;;20.90;9.00;;;;;;;;;;4915481;29;20032;-69
2021/10/11 00:12:51;;;;;;;20.08;9.35;;;;;;;;;;4915367;29;20451;-67
2021/10/11 00:15:17;;;;;;;16.13;9.23;;;;;;;;;;4915033;29;20099;-65
2021/10/11 00:17:43;;;;;;;17.00;7.88;;;;;;;;;;4915428;29;20032;-65
2021/10/11 00:20:10;;;;;;;27.77;9.13;;;;;;;;;;4915337;29;20036;-70
2021/10/11 00:22:37;;;;;;;17.80;8.25;;;;;;;;;;4915137;29;20032;-60
2021/10/11 00:25:04;;;;;;;20.38;7.65;;;;;;;;;;4915398;29;20027;-72
2021/10/11 00:27:31;;;;;;;19.73;8.93;;;;;;;;;;4915171;29;20071;-60
2021/10/11 00:29:57;;;;;;;21.67;8.73;;;;;;;;;;4915339;29;20099;-62
2021/10/11 00:32:23;;;;;;;23.13;9.02;;;;;;;;;;4914768;29;20055;-65
2021/10/11 00:34:49;;;;;;;14.77;7.35;;;;;;;;;;4915154;29;20028;-60
2021/10/11 00:37:15;;;;;;;21.48;8.20;;;;;;;;;;4915164;29;20107;-65
2021/10/11 00:39:41;;;;;;;24.48;7.68;;;;;;;;;;4915281;29;20071;-72
2021/10/11 00:42:08;;;;;;;18.27;6.88;;;;;;;;;;4915153;29;20027;-71
2021/10/11 00:44:34;;;;;;;18.98;7.40;;;;;;;;;;4914819;29;20043;-73
2021/10/11 00:47:00;;;;;;;18.27;8.43;;;;;;;;;;4915074;29;20039;-69
2021/10/11 00:49:26;;;;;;;23.98;8.90;;;;;;;;;;4914947;29;20036;-68
2021/10/11 00:51:52;;;;;;;19.90;8.82;;;;;;;;;;4915045;29;20035;-70
2021/10/11 00:54:18;;;;;;;16.02;7.10;;;;;;;;;;4914801;29;20032;-71
2021/10/11 00:56:45;;;;;;;18.83;8.55;;;;;;;;;;4915009;29;20115;-71
2021/10/11 00:59:11;;;;;;;20.05;8.40;;;;;;;;;;4914797;29;20425;-68
2021/10/11 01:01:38;;;;;;;20.25;8.90;;;;;;;;;;4915041;29;20036;-74
2021/10/11 01:04:07;;;;;;;17.67;7.97;;;;;;;;;;4914707;29;20044;-70
2021/10/11 01:06:36;;;;;;;19.05;8.10;;;;;;;;;;4914779;29;20504;-71
2021/10/11 01:09:03;;;;;;;18.15;8.57;;;;;;;;;;4915070;29;20345;-64
2021/10/11 01:11:29;;;;;;;21.30;8.23;;;;;;;;;;4918780;29;20424;-67
2021/10/11 01:13:55;;;;;;;16.17;7.90;;;;;;;;;;4918832;29;20032;-62
2021/10/11 01:16:21;;;;;;;19.80;8.90;;;;;;;;;;4919011;29;20083;-65
2021/10/11 01:18:47;;;;;;;20.85;8.05;;;;;;;;;;4918923;29;20066;-66
2021/10/11 01:21:13;;;;;;;17.10;8.95;;;;;;;;;;4918486;29;20032;-65
2021/10/11 01:23:39;;;;;;;17.95;8.20;;;;;;;;;;4918632;29;20087;-58
2021/10/11 01:26:05;;;;;;;20.90;9.20;;;;;;;;;;4918839;29;20096;-72
2021/10/11 01:28:31;;;;;;;19.50;8.15;;;;;;;;;;4918713;29;20155;-67
2021/10/11 01:30:58;;;;;;;24.40;8.27;;;;;;;;;;4918692;29;20119;-63
2021/10/11 01:33:24;;;;;;;28.23;8.77;;;;;;;;;;4917946;29;20051;-64
2021/10/11 01:35:50;;;;;;;21.30;8.52;;;;;;;;;;4918588;29;20400;-65
2021/10/11 01:38:16;;;;;;;19.77;8.35;;;;;;;;;;4918570;29;20028;-57
2021/10/11 01:40:42;;;;;;;26.40;9.05;;;;;;;;;;4918500;29;20035;-70
2021/10/11 01:43:09;;;;;;;19.50;7.97;;;;;;;;;;4918429;29;20099;-60
2021/10/11 01:45:35;;;;;;;21.75;9.02;;;;;;;;;;4918334;29;20075;-59
2021/10/11 01:48:03;;;;;;;13.63;7.63;;;;;;;;;;4918194;29;20032;-72
2021/10/11 01:50:29;;;;;;;24.58;7.78;;;;;;;;;;4918248;29;20060;-69
2021/10/11 01:52:55;;;;;;;21.70;8.43;;;;;;;;;;4918063;29;20385;-68
2021/10/11 01:55:21;;;;;;;18.92;8.07;;;;;;;;;;4918167;29;20115;-71
2021/10/11 01:57:47;;;;;;;15.88;7.30;;;;;;;;;;4918100;29;20091;-73
2021/10/11 02:00:13;;;;;;;23.45;9.18;;;;;;;;;;4917936;29;20065;-58
2021/10/11 02:02:39;;;;;;;19.25;7.60;;;;;;;;;;4919291;29;20036;-68
2021/10/11 02:05:06;;;;;;;16.05;8.38;;;;;;;;;;4919530;29;20039;-73
2021/10/11 02:07:32;;;;;;;21.90;9.02;;;;;;;;;;4918243;29;20036;-58
2021/10/11 02:09:58;;;;;;;14.00;7.10;;;;;;;;;;4918102;29;20064;-59
2021/10/11 02:12:24;;;;;;;15.20;7.68;;;;;;;;;;4917622;29;20021;-60
2021/10/11 02:14:50;;;;;;;17.35;7.38;;;;;;;;;;4917586;29;20031;-59
2021/10/11 02:17:16;;;;;;;17.40;7.28;;;;;;;;;;4917624;29;20028;-68
2021/10/11 02:19:43;;;;;;;14.77;7.70;;;;;;;;;;4917880;29;20116;-64
2021/10/11 02:22:09;;;;;;;20.55;8.88;;;;;;;;;;4916548;29;20107;-58
2021/10/11 02:24:35;;;;;;;23.58;7.57;;;;;;;;;;4900420;29;20087;-59
2021/10/11 02:27:01;;;;;;;20.33;7.75;;;;;;;;;;4917453;29;20062;-60
2021/10/11 02:29:28;;;;;;;17.25;7.78;;;;;;;;;;4917299;29;20123;-66
2021/10/11 02:31:55;;;;;;;19.38;8.50;;;;;;;;;;4917081;29;20063;-58
2021/10/11 02:34:21;;;;;;;21.33;8.13;;;;;;;;;;4917476;29;20043;-61
2021/10/11 02:36:47;;;;;;;17.90;6.78;;;;;;;;;;4917240;29;20028;-62
2021/10/11 02:39:13;;;;;;;22.75;9.32;;;;;;;;;;4917422;29;20020;-58
2021/10/11 02:41:39;;;;;;;25.35;8.50;;;;;;;;;;4917262;29;20103;-58
2021/10/11 02:44:05;;;;;;;21.02;8.45;;;;;;;;;;4917144;29;20036;-61
2021/10/11 02:46:31;;;;;;;22.25;8.85;;;;;;;;;;4917379;29;20032;-59
2021/10/11 02:48:58;;;;;;;15.00;7.38;;;;;;;;;;4917243;29;20112;-61
2021/10/11 02:51:24;;;;;;;19.38;8.30;;;;;;;;;;4916989;29;20025;-60
2021/10/11 02:53:50;;;;;;;17.45;7.88;;;;;;;;;;4917092;29;20035;-59
2021/10/11 02:56:17;;;;;;;19.95;7.93;;;;;;;;;;4917073;29;20060;-64
2021/10/11 02:58:43;;;;;;;18.42;8.77;;;;;;;;;;4917088;29;20028;-61
2021/10/11 03:01:09;;;;;;;15.25;7.53;;;;;;;;;;4916884;29;20075;-71
2021/10/11 03:03:35;;;;;;;18.73;7.15;;;;;;;;;;4917046;29;20044;-59
2021/10/11 03:06:01;;;;;;;15.10;7.13;;;;;;;;;;4916825;29;20056;-68
2021/10/11 03:08:27;;;;;;;19.63;8.25;;;;;;;;;;4917007;29;20031;-58
2021/10/11 03:10:53;;;;;;;17.75;7.95;;;;;;;;;;4916673;29;20043;-61
2021/10/11 03:13:19;;;;;;;17.90;8.77;;;;;;;;;;4916544;29;20385;-70
2021/10/11 03:15:45;;;;;;;21.20;9.30;;;;;;;;;;4899476;29;20028;-73
2021/10/11 03:18:11;;;;;;;18.05;8.43;;;;;;;;;;4916487;29;20032;-69
2021/10/11 03:20:37;;;;;;;17.75;8.63;;;;;;;;;;4916701;29;20124;-73
2021/10/11 03:23:04;;;;;;;25.73;8.40;;;;;;;;;;4916350;29;20055;-64
2021/10/11 03:25:30;;;;;;;24.15;9.40;;;;;;;;;;4916204;29;20056;-59
2021/10/11 03:27:56;;;;;;;17.35;8.35;;;;;;;;;;4916422;29;20035;-64
2021/10/11 03:30:22;;;;;;;22.00;9.25;;;;;;;;;;4916291;29;20020;-72
2021/10/11 03:32:48;;;;;;;27.98;9.82;;;;;;;;;;4915671;29;20075;-67
2021/10/11 03:35:14;;;;;;;24.05;9.40;;;;;;;;;;4916370;29;20032;-61
2021/10/11 03:37:40;;;;;;;20.95;8.43;;;;;;;;;;4916263;29;20032;-63
2021/10/11 03:40:07;;;;;;;21.00;9.63;;;;;;;;;;4916409;29;20028;-72
2021/10/11 03:42:33;;;;;;;19.63;9.48;;;;;;;;;;4915995;29;20036;-60
2021/10/11 03:44:59;;;;;;;19.75;9.30;;;;;;;;;;4915986;29;20028;-61
2021/10/11 03:47:25;;;;;;;23.52;9.98;;;;;;;;;;4916148;29;20040;-72
2021/10/11 03:49:51;;;;;;;21.13;8.68;;;;;;;;;;4915926;29;20028;-66
2021/10/11 03:52:17;;;;;;;18.65;8.93;;;;;;;;;;4915998;29;20103;-69
2021/10/11 03:54:43;;;;;;;26.73;7.45;;;;;;;;;;4915973;29;20032;-69
2021/10/11 03:57:09;;;;;;;21.10;8.95;;;;;;;;;;4916077;29;20084;-72
2021/10/11 03:59:35;;;;;;;22.92;9.60;;;;;;;;;;4916053;29;20028;-70
2021/10/11 04:02:01;;;;;;;20.20;8.77;;;;;;;;;;4915668;29;20123;-65
2021/10/11 04:04:28;;;;;;;19.67;9.30;;;;;;;;;;4915822;29;20086;-67
2021/10/11 04:06:56;;;;;;;22.83;9.93;;;;;;;;;;4915640;29;20131;-61
2021/10/11 04:09:27;;;;;;;20.52;9.07;;;;;;;;;;4915840;29;20072;-68
2021/10/11 04:11:54;;;;;;;17.77;8.65;;;;;;;;;;4915923;29;20149;-60
2021/10/11 04:14:24;;;;;;;20.73;9.10;;;;;;;;;;4915433;29;20035;-60
2021/10/11 04:16:51;;;;;;;18.15;8.85;;;;;;;;;;4915350;29;20032;-74
2021/10/11 04:19:17;;;;;;;20.73;8.88;;;;;;;;;;4915718;29;20043;-59
2021/10/11 04:21:43;;;;;;;22.75;8.73;;;;;;;;;;4915328;29;20056;-65
2021/10/11 04:24:09;;;;;;;18.45;8.95;;;;;;;;;;4915345;29;20040;-73
2021/10/11 04:26:36;;;;;;;19.38;9.50;;;;;;;;;;4915239;29;20028;-63
2021/10/11 04:29:02;;;;;;;27.10;9.05;;;;;;;;;;4915342;29;20035;-62
2021/10/11 04:31:28;;;;;;;20.33;8.18;;;;;;;;;;4915046;29;20031;-59
2021/10/11 04:33:54;;;;;;;17.55;8.23;;;;;;;;;;4914899;29;20120;-59
2021/10/11 04:36:21;;;;;;;18.33;8.13;;;;;;;;;;4914807;29;20077;-61
2021/10/11 04:38:47;;;;;;;15.68;7.65;;;;;;;;;;4915013;29;20032;-73
2021/10/11 04:41:14;;;;;;;16.13;8.13;;;;;;;;;;4915004;29;20366;-61
2021/10/11 04:43:40;;;;;;;18.23;7.70;;;;;;;;;;4914844;29;20047;-60
2021/10/11 04:46:06;;;;;;;18.25;8.10;;;;;;;;;;4914524;29;20028;-59
2021/10/11 04:48:32;;;;;;;18.02;8.15;;;;;;;;;;4915047;29;20036;-68
2021/10/11 04:50:58;;;;;;;19.58;8.65;;;;;;;;;;4915134;29;20055;-67
2021/10/11 04:53:24;;;;;;;20.27;8.60;;;;;;;;;;4897650;29;20095;-68
2021/10/11 04:55:50;;;;;;;21.45;8.23;;;;;;;;;;4914785;29;20024;-59
2021/10/11 04:58:16;;;;;;;22.05;9.23;;;;;;;;;;4914992;29;20036;-59
2021/10/11 05:00:42;;;;;;;21.73;8.48;;;;;;;;;;4914931;29;20564;-63
2021/10/11 05:03:08;;;;;;;22.70;8.65;;;;;;;;;;4914286;29;20036;-63
2021/10/11 05:05:35;;;;;;;18.02;8.80;;;;;;;;;;4914741;29;20488;-66
2021/10/11 05:08:01;;;;;;;20.27;9.95;;;;;;;;;;4914328;29;20136;-65
2021/10/11 05:10:27;;;;;;;18.05;9.00;;;;;;;;;;4914639;29;20087;-65
2021/10/11 05:12:54;;;;;;;18.80;9.57;;;;;;;;;;4914857;29;20036;-58
2021/10/11 05:15:20;;;;;;;21.55;9.95;;;;;;;;;;4914360;29;20103;-62
2021/10/11 05:17:46;;;;;;;20.30;10.00;;;;;;;;;;4914625;29;20032;-63
2021/10/11 05:20:13;;;;;;;22.90;9.85;;;;;;;;;;4914466;29;20032;-71
2021/10/11 05:22:39;;;;;;;24.38;10.65;;;;;;;;;;4914353;29;20477;-69
2021/10/11 05:25:06;;;;;;;21.88;9.88;;;;;;;;;;4914238;29;20152;-60
2021/10/11 05:27:32;;;;;;;25.88;12.13;;;;;;;;;;4914232;29;20136;-60
2021/10/11 05:29:59;;;;;;;24.80;13.30;;;;;;;;;;4914348;29;20035;-62
2021/10/11 05:32:25;;;;;;;27.65;11.73;;;;;;;;;;4913904;29;20056;-58
2021/10/11 05:34:51;;;;;;;26.73;13.27;;;;;;;;;;4914362;29;20046;-66
2021/10/11 05:37:18;;;;;;;26.95;12.77;;;;;;;;;;4913919;29;20032;-62
2021/10/11 05:39:44;;;;;;;28.15;12.63;;;;;;;;;;4914273;29;20043;-67
2021/10/11 05:42:10;;;;;;;27.48;12.88;;;;;;;;;;4914161;29;20099;-61
2021/10/11 05:44:37;;;;;;;26.25;13.07;;;;;;;;;;4913947;29;20044;-69
2021/10/11 05:47:03;;;;;;;29.33;12.63;;;;;;;;;;4914181;29;20048;-67
2021/10/11 05:49:29;;;;;;;24.80;12.73;;;;;;;;;;4914042;29;20080;-64
2021/10/11 05:51:55;;;;;;;24.30;12.77;;;;;;;;;;4914022;29;20036;-62
2021/10/11 05:54:21;;;;;;;30.80;13.00;;;;;;;;;;4913909;29;20024;-64
2021/10/11 05:56:47;;;;;;;22.48;12.05;;;;;;;;;;4916803;29;20052;-69
2021/10/11 05:59:14;;;;;;;24.50;12.60;;;;;;;;;;4917363;29;20484;-66
2021/10/11 06:01:40;;;;;;;27.33;12.35;;;;;;;;;;4907975;29;20039;-65
2021/10/11 06:04:06;;;;;;;27.30;12.85;;;;;;;;;;4907884;29;20048;-62
2021/10/11 06:06:32;;;;;;;29.38;13.23;;;;;;;;;;4907918;29;20022;-64
2021/10/11 06:08:58;;;;;;;25.10;13.00;;;;;;;;;;4889061;29;20044;-71
2021/10/11 06:11:24;;;;;;;27.45;14.05;;;;;;;;;;4907000;29;20654;-61
2021/10/11 06:13:50;;;;;;;30.73;13.13;;;;;;;;;;4907735;29;20029;-66
2021/10/11 06:16:16;;;;;;;28.40;13.25;;;;;;;;;;4905543;29;20121;-62
2021/10/11 06:18:42;;;;;;;28.98;15.07;;;;;;;;;;4907186;29;20040;-64
2021/10/11 06:21:08;;;;;;;29.38;14.63;;;;;;;;;;4910099;29;20028;-71
2021/10/11 06:23:34;;;;;;;31.60;14.57;;;;;;;;;;4907759;29;20091;-64
2021/10/11 06:26:00;;;;;;;28.20;14.93;;;;;;;;;;4905287;29;20039;-64
2021/10/11 06:28:27;;;;;;;29.70;14.07;;;;;;;;;;4905590;29;20032;-67
2021/10/11 06:30:53;;;;;;;30.65;14.77;;;;;;;;;;4904562;29;20028;-70
2021/10/11 06:33:21;;;;;;;29.52;14.63;;;;;;;;;;4905596;29;20087;-63
2021/10/11 06:35:48;;;;;;;40.45;20.75;;;;;;;;;;4903297;29;20037;-64
2021/10/11 06:38:14;;;;;;;31.67;16.65;;;;;;;;;;4898105;29;20039;-65
2021/10/11 06:40:40;;;;;;;30.77;16.27;;;;;;;;;;4900025;29;20028;-58
2021/10/11 06:43:06;;;;;;;28.40;15.25;;;;;;;;;;4915905;29;20131;-59
2021/10/11 06:45:32;;;;;;;28.58;13.77;;;;;;;;;;4912380;29;20468;-58
2021/10/11 06:47:59;;;;;;;25.17;12.82;;;;;;;;;;4917051;29;20535;-59
2021/10/11 06:50:25;;;;;;;25.67;14.15;;;;;;;;;;4911937;29;20079;-58
2021/10/11 06:52:51;;;;;;;27.88;14.70;;;;;;;;;;4906804;29;20389;-62
2021/10/11 06:55:17;;;;;;;34.03;15.35;;;;;;;;;;4905384;29;20025;-68
2021/10/11 06:57:43;;;;;;;36.10;16.35;;;;;;;;;;4906748;29;20035;-58
2021/10/11 07:00:09;;;;;;;33.72;14.05;;;;;;;;;;4906282;29;20036;-67
2021/10/11 07:02:35;;;;;;;54.83;23.65;;;;;;;;;;4904917;29;20047;-59
2021/10/11 07:05:09;;;;;;;34.38;17.08;;;;;;;;;;4908301;29;20044;-61
2021/10/11 07:07:35;;;;;;;27.50;14.02;;;;;;;;;;4904253;29;20117;-63
2021/10/11 07:10:02;;;;;;;31.50;12.95;;;;;;;;;;4906724;29;20032;-62
2021/10/11 07:12:28;;;;;;;28.40;13.77;;;;;;;;;;4905976;29;20114;-59
2021/10/11 07:14:54;;;;;;;23.23;11.73;;;;;;;;;;4904572;29;20080;-71
2021/10/11 07:17:20;;;;;;;24.88;10.60;;;;;;;;;;4906479;29;20028;-60
2021/10/11 07:19:47;;;;;;;22.40;10.57;;;;;;;;;;4907310;29;20480;-61
2021/10/11 07:22:16;;;;;;;30.20;12.13;;;;;;;;;;4914125;29;20032;-59
2021/10/11 07:24:42;;;;;;;25.05;11.60;;;;;;;;;;4898757;29;20420;-60
2021/10/11 07:27:09;;;;;;;31.67;13.55;;;;;;;;;;4915885;29;20544;-64
2021/10/11 07:29:35;;;;;;;27.38;12.48;;;;;;;;;;4916230;29;20035;-64
2021/10/11 07:32:01;;;;;;;29.30;12.98;;;;;;;;;;4915585;29;20671;-61
2021/10/11 07:34:27;;;;;;;21.63;11.10;;;;;;;;;;4916166;29;20039;-64
2021/10/11 07:36:53;;;;;;;26.33;12.02;;;;;;;;;;4916085;29;20029;-69
2021/10/11 07:39:19;;;;;;;29.77;11.30;;;;;;;;;;4916048;29;20480;-71
2021/10/11 07:41:45;;;;;;;25.55;13.30;;;;;;;;;;4916044;29;20218;-69
2021/10/11 07:44:11;;;;;;;27.67;13.93;;;;;;;;;;4915359;29;20071;-64
2021/10/11 07:46:38;;;;;;;25.48;13.43;;;;;;;;;;4915830;29;20024;-65
2021/10/11 07:49:05;;;;;;;29.00;14.25;;;;;;;;;;4915903;29;20491;-68
2021/10/11 07:51:31;;;;;;;29.98;13.45;;;;;;;;;;4915852;29;20028;-70
2021/10/11 07:53:57;;;;;;;28.77;12.95;;;;;;;;;;4915419;29;20392;-66
2021/10/11 07:56:23;;;;;;;24.02;12.05;;;;;;;;;;4915421;29;20024;-63
2021/10/11 07:58:49;;;;;;;25.00;12.02;;;;;;;;;;4915589;29;20034;-65
2021/10/11 08:01:15;;;;;;;27.73;14.00;;;;;;;;;;4913759;29;20025;-65
2021/10/11 08:03:41;;;;;;;24.27;11.77;;;;;;;;;;4914956;29;20139;-62
2021/10/11 08:06:07;;;;;;;28.45;12.77;;;;;;;;;;4915096;29;20032;-61
2021/10/11 08:08:34;;;;;;;29.70;11.80;;;;;;;;;;4911788;29;20115;-61
2021/10/11 08:11:01;;;;;;;28.77;12.13;;;;;;;;;;4913843;29;20024;-65
2021/10/11 08:13:27;;;;;;;22.65;9.85;;;;;;;;;;4915353;29;20039;-62
2021/10/11 08:15:53;;;;;;;26.23;12.60;;;;;;;;;;4915160;29;20095;-62
2021/10/11 08:18:19;;;;;;;29.58;12.05;;;;;;;;;;4915062;29;20500;-62
2021/10/11 08:20:46;;;;;;;25.08;12.02;;;;;;;;;;4914224;29;20036;-63
2021/10/11 08:23:12;;;;;;;24.85;12.35;;;;;;;;;;4908014;29;20046;-62
2021/10/11 08:25:38;;;;;;;26.80;12.15;;;;;;;;;;4904590;29;20028;-60
2021/10/11 08:28:05;;;;;;;23.42;12.15;;;;;;;;;;4899774;29;20081;-60
2021/10/11 08:30:31;;;;;;;26.02;12.20;;;;;;;;;;4900212;29;20028;-61
2021/10/11 08:32:58;;;;;;;26.55;12.20;;;;;;;;;;4901984;29;20056;-61
2021/10/11 08:35:24;;;;;;;24.10;11.95;;;;;;;;;;4901983;29;20488;-61
2021/10/11 08:37:53;;;;;;;22.98;11.02;;;;;;;;;;4905831;29;20111;-61
2021/10/11 08:40:19;;;;;;;18.55;10.90;;;;;;;;;;4904081;29;20456;-62
2021/10/11 08:42:47;;;;;;;24.02;11.15;;;;;;;;;;4904983;29;20032;-61
2021/10/11 08:45:13;;;;;;;22.27;11.25;;;;;;;;;;4914472;29;20032;-60
2021/10/11 08:47:39;;;;;;;23.67;12.57;;;;;;;;;;4913258;29;20036;-60
2021/10/11 08:50:06;;;;;;;24.60;12.07;;;;;;;;;;4914636;29;20440;-60
2021/10/11 08:52:33;;;;;;;22.98;11.63;;;;;;;;;;4914145;29;20072;-60
2021/10/11 08:54:59;;;;;;;24.42;12.65;;;;;;;;;;4914300;29;20077;-61
2021/10/11 08:57:26;;;;;;;26.27;13.48;;;;;;;;;;4914586;29;20032;-60
2021/10/11 08:59:53;;;;;;;27.67;12.70;;;;;;;;;;4892778;29;20078;-59
2021/10/11 09:02:20;;;;;;;26.55;13.32;;;;;;;;;;4911206;29;20029;-61
2021/10/11 09:04:56;;;;;;;25.25;12.65;;;;;;;;;;4904742;29;20043;-62
2021/10/11 09:07:24;;;;;;;21.15;11.88;;;;;;;;;;4907081;29;20043;-61
2021/10/11 09:09:51;;;;;;;27.30;13.73;;;;;;;;;;4913828;29;20087;-61
2021/10/11 09:12:21;;;;;;;27.58;13.40;;;;;;;;;;4914267;29;20072;-62
2021/10/11 09:15:04;;;;;;;23.83;13.48;;;;;;;;;;4904948;29;20039;-63
2021/10/11 09:17:35;;;;;;;21.23;11.65;;;;;;;;;;4894765;29;20041;-65
2021/10/11 09:20:14;;;;;;;25.33;11.98;;;;;;;;;;4903586;29;20024;-65
2021/10/11 09:22:41;;;;;;;22.77;12.43;;;;;;;;;;4912399;29;20020;-61
2021/10/11 09:25:08;;;;;;;19.92;12.27;;;;;;;;;;4903173;29;20029;-61
2021/10/11 09:27:54;;;;;;;20.83;11.40;;;;;;;;;;4909975;29;20388;-69
2021/10/11 09:30:24;;;;;;;20.45;11.60;;;;;;;;;;4914375;29;20036;-62
2021/10/11 09:32:50;;;;;;;21.73;11.70;;;;;;;;;;4917668;29;20489;-63
2021/10/11 09:35:18;;;;;;;29.05;12.48;;;;;;;;;;4918008;29;20096;-61
2021/10/11 09:37:50;;;;;;;21.33;10.57;;;;;;;;;;4917919;29;20032;-61
2021/10/11 09:40:19;;;;;;;16.50;9.10;;;;;;;;;;4917417;29;20040;-60
2021/10/11 09:42:46;;;;;;;22.67;11.30;;;;;;;;;;4917490;29;20270;-60
2021/10/11 09:45:12;;;;;;;23.02;10.88;;;;;;;;;;4917465;29;20095;-61
2021/10/11 09:47:40;;;;;;;22.73;11.35;;;;;;;;;;4917724;29;20032;-61
2021/10/11 09:50:08;;;;;;;22.73;11.27;;;;;;;;;;4917378;29;20146;-60
2021/10/11 09:52:35;;;;;;;24.35;10.95;;;;;;;;;;4917366;29;20059;-59
2021/10/11 09:55:01;;;;;;;23.92;10.55;;;;;;;;;;4917012;29;20059;-67
2021/10/11 09:57:28;;;;;;;22.90;11.93;;;;;;;;;;4917573;29;20028;-68
2021/10/11 09:59:54;;;;;;;25.88;12.55;;;;;;;;;;4916878;29;20512;-67
2021/10/11 10:02:31;;;;;;;28.58;12.75;;;;;;;;;;4916726;29;20087;-71
2021/10/11 10:04:58;;;;;;;28.40;14.02;;;;;;;;;;4917024;29;20055;-68
2021/10/11 10:07:27;;;;;;;37.05;17.67;;;;;;;;;;4917059;29;20499;-72
2021/10/11 10:09:55;;;;;;;31.48;15.05;;;;;;;;;;4916564;29;20029;-68
2021/10/11 10:12:21;;;;;;;27.83;13.88;;;;;;;;;;4916501;29;20055;-69
2021/10/11 10:14:57;;;;;;;22.17;14.38;;;;;;;;;;4916065;29;20055;-66
2021/10/11 10:17:30;;;;;;;25.77;14.27;;;;;;;;;;4916144;29;20024;-67
2021/10/11 10:20:04;;;;;;;26.52;13.55;;;;;;;;;;4917032;29;20028;-67
2021/10/11 10:22:30;;;;;;;30.58;14.10;;;;;;;;;;4916918;29;20016;-68
2021/10/11 10:25:08;;;;;;;28.08;15.05;;;;;;;;;;4916778;29;20397;-68
2021/10/11 10:27:39;;;;;;;57.92;24.65;;;;;;;;;;4916661;29;20035;-67
2021/10/11 10:30:25;;;;;;;43.20;21.92;;;;;;;;;;4916464;29;20032;-67
2021/10/11 10:32:56;;;;;;;29.38;17.30;;;;;;;;;;4916467;29;20086;-59
2021/10/11 10:35:23;;;;;;;23.58;10.82;;;;;;;;;;4917329;29;20055;-59
2021/10/11 10:37:49;;;;;;;25.02;14.43;;;;;;;;;;4916937;29;20036;-68
2021/10/11 10:40:16;;;;;;;33.42;15.77;;;;;;;;;;4916439;29;20504;-59
2021/10/11 10:42:44;;;;;;;28.25;15.38;;;;;;;;;;4915515;29;20036;-59
2021/10/11 10:45:15;;;;;;;26.10;15.13;;;;;;;;;;4916535;29;20068;-66
2021/10/11 10:47:41;;;;;;;35.20;17.33;;;;;;;;;;4915940;29;20024;-73
2021/10/11 10:50:28;;;;;;;23.48;12.02;;;;;;;;;;4916402;29;20043;-73
2021/10/11 10:52:56;;;;;;;19.02;10.88;;;;;;;;;;4916097;29;20024;-67
2021/10/11 10:55:23;;;;;;;26.60;13.02;;;;;;;;;;4916020;29;20503;-67
2021/10/11 10:57:53;;;;;;;20.90;11.65;;;;;;;;;;4916567;29;20084;-63
2021/10/11 11:00:20;;;;;;;21.77;12.02;;;;;;;;;;4916070;29;20357;-61
2021/10/11 11:02:46;;;;;;;20.98;11.10;;;;;;;;;;4915705;29;20040;-71
2021/10/11 11:05:13;;;;;;;24.58;10.75;;;;;;;;;;4916064;29;20044;-71
2021/10/11 11:07:39;;;;;;;22.83;12.10;;;;;;;;;;4915963;29;20029;-64
2021/10/11 11:10:06;;;;;;;25.77;14.00;;;;;;;;;;4915841;29;20024;-63
2021/10/11 11:12:34;;;;;;;35.78;17.48;;;;;;;;;;4915985;29;20028;-60
2021/10/11 11:15:01;;;;;;;23.30;12.18;;;;;;;;;;4916112;29;20040;-71
2021/10/11 11:17:29;;;;;;;30.55;12.40;;;;;;;;;;4916288;29;20020;-58
2021/10/11 11:19:55;;;;;;;29.77;14.20;;;;;;;;;;4916591;29;20380;-72
2021/10/11 11:22:28;;;;;;;29.75;14.73;;;;;;;;;;4916431;29;20160;-62
2021/10/11 11:24:56;;;;;;;27.77;14.15;;;;;;;;;;4915258;29;20036;-65
2021/10/11 11:27:27;;;;;;;42.13;19.25;;;;;;;;;;4915937;29;20032;-67
2021/10/11 11:29:55;;;;;;;27.77;14.90;;;;;;;;;;4915598;29;20032;-60
2021/10/11 11:32:21;;;;;;;28.17;14.18;;;;;;;;;;4915532;29;20063;-60
2021/10/11 11:34:47;;;;;;;41.00;17.77;;;;;;;;;;4915944;29;20047;-67
2021/10/11 11:37:14;;;;;;;42.08;21.83;;;;;;;;;;4915539;29;20110;-65
2021/10/11 11:39:40;;;;;;;35.55;18.13;;;;;;;;;;4915373;29;20108;-60
2021/10/11 11:42:07;;;;;;;34.38;18.10;;;;;;;;;;4915538;29;20103;-59
2021/10/11 11:44:33;;;;;;;42.05;23.10;;;;;;;;;;4915808;29;20039;-57
2021/10/11 11:47:07;;;;;;;28.75;15.50;;;;;;;;;;4915687;29;20060;-58
2021/10/11 11:49:35;;;;;;;20.92;11.00;;;;;;;;;;4915755;29;20119;-60
2021/10/11 11:52:04;;;;;;;21.00;10.88;;;;;;;;;;4915416;29;20024;-65
2021/10/11 11:54:30;;;;;;;19.85;11.82;;;;;;;;;;4915393;29;20032;-57
2021/10/11 11:56:56;;;;;;;26.52;14.48;;;;;;;;;;4915641;29;20024;-57
2021/10/11 11:59:22;;;;;;;26.60;13.63;;;;;;;;;;4915420;29;20036;-57
2021/10/11 12:01:49;;;;;;;28.05;14.40;;;;;;;;;;4915337;29;20041;-58
2021/10/11 12:04:15;;;;;;;21.42;11.48;;;;;;;;;;4915281;29;20048;-57
2021/10/11 12:06:42;;;;;;;33.75;15.45;;;;;;;;;;4915006;29;20030;-57
2021/10/11 12:09:10;;;;;;;26.95;14.98;;;;;;;;;;4914793;29;20040;-58
2021/10/11 12:11:37;;;;;;;41.10;19.77;;;;;;;;;;4915274;29;20067;-57
2021/10/11 12:14:04;;;;;;;123.05;56.53;;;;;;;;;;4915503;29;20103;-57
2021/10/11 12:16:31;;;;;;;28.58;17.05;;;;;;;;;;4915157;29;20508;-57
2021/10/11 12:18:59;;;;;;;28.42;15.18;;;;;;;;;;4915386;29;20035;-59
2021/10/11 12:21:27;;;;;;;31.13;18.15;;;;;;;;;;4914814;29;20024;-71
2021/10/11 12:23:55;;;;;;;40.08;21.48;;;;;;;;;;4915082;29;20453;-59
2021/10/11 12:26:22;;;;;;;38.00;19.95;;;;;;;;;;4914802;29;20038;-57
2021/10/11 12:28:58;;;;;;;23.65;13.75;;;;;;;;;;4914984;29;20086;-58
2021/10/11 12:31:26;;;;;;;34.75;18.92;;;;;;;;;;4914900;29;20091;-58
2021/10/11 12:33:52;;;;;;;36.20;18.67;;;;;;;;;;4914794;29;20131;-58
2021/10/11 12:36:20;;;;;;;19.55;10.20;;;;;;;;;;4914921;29;20036;-58
2021/10/11 12:38:46;;;;;;;20.00;11.10;;;;;;;;;;4914886;29;20055;-59
2021/10/11 12:41:14;;;;;;;34.80;18.67;;;;;;;;;;4897509;29;20044;-57
2021/10/11 12:43:51;;;;;;;30.10;17.15;;;;;;;;;;4914767;29;20615;-60
2021/10/11 12:46:17;;;;;;;60.20;31.17;;;;;;;;;;4914556;29;20031;-60
2021/10/11 12:48:52;;;;;;;29.83;16.30;;;;;;;;;;4914737;29;20428;-71
2021/10/11 12:51:34;;;;;;;241.15;114.15;;;;;;;;;;4914069;29;20091;-62
2021/10/11 12:54:05;;;;;;;40.40;23.00;;;;;;;;;;4914490;29;20024;-68
2021/10/11 12:56:32;;;;;;;52.70;34.75;;;;;;;;;;4914203;29;20035;-64
2021/10/11 12:59:08;;;;;;;40.40;22.58;;;;;;;;;;4914441;29;20076;-60
2021/10/11 13:01:35;;;;;;;26.67;16.90;;;;;;;;;;4914373;29;20039;-61
2021/10/11 13:04:01;;;;;;;31.02;17.88;;;;;;;;;;4914105;29;20126;-60
2021/10/11 13:06:28;;;;;;;33.40;19.75;;;;;;;;;;4913907;29;20079;-58
2021/10/11 13:08:56;;;;;;;50.97;26.88;;;;;;;;;;4914487;29;20020;-72
2021/10/11 13:11:22;;;;;;;41.25;22.27;;;;;;;;;;4914752;29;20031;-67
2021/10/11 13:13:48;;;;;;;79.57;43.25;;;;;;;;;;4914913;29;20088;-63
2021/10/11 13:16:14;;;;;;;42.30;24.23;;;;;;;;;;4914328;29;20024;-63
2021/10/11 13:18:40;;;;;;;46.40;28.92;;;;;;;;;;4914534;29;20039;-60
2021/10/11 13:21:07;;;;;;;32.00;19.08;;;;;;;;;;4913840;29;20036;-74
2021/10/11 13:23:34;;;;;;;30.60;16.10;;;;;;;;;;4913908;29;20118;-63
2021/10/11 13:26:00;;;;;;;33.45;16.83;;;;;;;;;;4914166;29;20036;-60
2021/10/11 13:28:26;;;;;;;18.52;10.93;;;;;;;;;;4913966;29;20059;-59
2021/10/11 13:37:03;;;;;;;32.00;15.75;;;;;;;;;;4891787;29;20201;-70
2021/10/11 13:40:30;;;;;;;52.10;24.15;;;;;;;;;;4913187;29;20076;-66
2021/10/11 14:28:46;;;;;;;38.75;23.60;;;;;;;;;;4858071;29;20079;-61
2021/10/11 15:59:17;;;;;;;35.55;20.13;;;;;;;;;;4856928;29;20037;-58
2021/10/11 16:04:10;;;;;;;31.27;18.85;;;;;;;;;;4855043;29;20053;-59
2021/10/11 16:06:36;;;;;;;27.13;17.42;;;;;;;;;;4857099;29;20123;-59
2021/10/11 16:09:03;;;;;;;26.83;17.85;;;;;;;;;;4895444;29;20048;-57
2021/10/11 16:11:29;;;;;;;32.10;20.52;;;;;;;;;;4914367;29;20032;-58
2021/10/11 16:13:55;;;;;;;36.75;23.77;;;;;;;;;;4914869;29;20080;-58
2021/10/11 16:16:22;;;;;;;29.67;19.90;;;;;;;;;;4914860;29;20039;-61
2021/10/11 16:18:48;;;;;;;30.08;20.33;;;;;;;;;;4915249;29;20099;-58
2021/10/11 16:21:14;;;;;;;32.85;19.58;;;;;;;;;;4914372;29;20032;-59
2021/10/11 16:23:41;;;;;;;29.23;17.48;;;;;;;;;;4908408;29;20024;-57
2021/10/11 16:26:09;;;;;;;29.52;18.48;;;;;;;;;;4911752;29;20056;-66
2021/10/11 16:28:37;;;;;;;28.90;18.60;;;;;;;;;;4904476;29;20036;-57
2021/10/11 16:31:03;;;;;;;30.98;18.95;;;;;;;;;;4904603;29;20101;-63
2021/10/11 16:33:29;;;;;;;36.25;20.45;;;;;;;;;;4904983;29;20052;-62
2021/10/11 16:35:55;;;;;;;29.58;18.55;;;;;;;;;;4910004;29;20024;-59
2021/10/11 16:38:21;;;;;;;31.77;20.73;;;;;;;;;;4910707;29;20032;-59
2021/10/11 16:40:48;;;;;;;26.00;18.27;;;;;;;;;;4909803;29;20110;-67
2021/10/11 16:43:14;;;;;;;38.38;23.00;;;;;;;;;;4904374;29;20036;-59